createdAt,value
2017-03-12T00:00:47.541Z,5.18
2017-03-12T00:01:57.739Z,5.18
2017-03-12T00:03:07.888Z,5.15
2017-03-12T00:04:18.049Z,5.12
2017-03-12T00:05:27.386Z,5.15
2017-03-12T00:06:37.930Z,5.12
2017-03-12T00:07:48.087Z,5.15
2017-03-12T00:08:58.653Z,5.09
2017-03-12T00:10:08.401Z,5.04
2017-03-12T00:11:18.130Z,5.17
2017-03-12T00:12:28.277Z,4.99
2017-03-12T00:13:38.020Z,5.07
2017-03-12T00:14:47.381Z,5.13
2017-03-12T00:15:57.514Z,5.07
2017-03-12T00:17:07.256Z,5.09
2017-03-12T00:18:17.393Z,5.04
2017-03-12T00:19:27.530Z,5.07
2017-03-12T00:20:38.115Z,5.07
2017-03-12T00:21:47.999Z,5.04
2017-03-12T00:22:58.556Z,5.04
2017-03-12T00:24:09.107Z,5.06
2017-03-12T00:25:19.674Z,5.12
2017-03-12T00:26:30.671Z,5
2017-03-12T00:27:41.379Z,4.97
2017-03-12T00:28:51.945Z,4.97
2017-03-12T00:30:02.123Z,5.03
2017-03-12T00:31:12.682Z,5.02
2017-03-12T00:32:22.455Z,5.06
2017-03-12T00:33:32.450Z,5
2017-03-12T00:34:43.055Z,4.97
2017-03-12T00:35:52.796Z,4.96
2017-03-12T00:37:02.578Z,4.97
2017-03-12T00:38:13.159Z,5.02
2017-03-12T00:39:23.326Z,5.03
2017-03-12T00:40:33.083Z,5.04
2017-03-12T00:41:42.435Z,4.99
2017-03-12T00:42:52.586Z,4.99
2017-03-12T00:44:02.364Z,4.94
2017-03-12T00:45:13.646Z,4.92
2017-03-12T00:46:24.198Z,4.96
2017-03-12T00:47:34.747Z,5.06
2017-03-12T00:48:45.313Z,4.86
2017-03-12T00:49:55.877Z,5.03
2017-03-12T00:51:06.433Z,4.94
2017-03-12T00:52:17.001Z,4.75
2017-03-12T00:53:27.146Z,4.94
2017-03-12T00:54:37.709Z,4.96
2017-03-12T00:55:48.272Z,4.88
2017-03-12T00:56:58.570Z,4.91
2017-03-12T00:58:07.898Z,4.77
2017-03-12T00:59:18.040Z,4.78
2017-03-12T01:00:28.181Z,4.77
2017-03-12T01:01:38.329Z,4.82
2017-03-12T01:02:48.227Z,4.77
2017-03-12T01:03:58.783Z,4.8
2017-03-12T01:05:08.961Z,4.73
2017-03-12T01:06:18.290Z,4.73
2017-03-12T01:07:29.254Z,4.77
2017-03-12T01:08:39.158Z,4.78
2017-03-12T01:09:50.124Z,4.7
2017-03-12T01:11:00.683Z,4.72
2017-03-12T01:12:10.423Z,4.72
2017-03-12T01:13:20.974Z,4.77
2017-03-12T01:14:31.660Z,4.73
2017-03-12T01:15:41.819Z,4.7
2017-03-12T01:16:52.376Z,4.62
2017-03-12T01:18:02.537Z,4.65
2017-03-12T01:19:13.116Z,4.66
2017-03-12T01:20:23.681Z,4.7
2017-03-12T01:21:33.838Z,4.66
2017-03-12T01:22:44.404Z,4.69
2017-03-12T01:23:54.556Z,4.59
2017-03-12T01:25:04.706Z,4.55
2017-03-12T01:26:14.596Z,4.62
2017-03-12T01:27:24.331Z,4.59
2017-03-12T01:28:34.486Z,4.6
2017-03-12T01:29:45.463Z,4.62
2017-03-12T01:30:55.602Z,4.65
2017-03-12T01:32:06.318Z,4.63
2017-03-12T01:33:16.059Z,4.59
2017-03-12T01:34:26.613Z,4.62
2017-03-12T01:35:36.766Z,4.62
2017-03-12T01:36:46.934Z,4.45
2017-03-12T01:37:57.227Z,4.54
2017-03-12T01:39:06.999Z,4.59
2017-03-12T01:40:17.140Z,4.66
2017-03-12T01:41:27.280Z,4.66
2017-03-12T01:42:38.249Z,4.6
2017-03-12T01:43:48.148Z,4.59
2017-03-12T01:44:58.740Z,4.51
2017-03-12T01:46:08.910Z,4.63
2017-03-12T01:47:19.055Z,4.54
2017-03-12T01:48:28.381Z,4.52
2017-03-12T01:49:38.980Z,4.54
2017-03-12T01:50:48.716Z,4.59
2017-03-12T01:51:59.292Z,4.47
2017-03-12T01:53:09.052Z,4.47
2017-03-12T01:54:18.418Z,4.45
2017-03-12T01:55:29.118Z,4.48
2017-03-12T01:56:39.682Z,4.42
2017-03-12T01:57:50.236Z,4.4
2017-03-12T01:59:00.404Z,4.42
2017-03-12T02:00:10.991Z,4.44
2017-03-12T02:01:20.728Z,4.33
2017-03-12T02:02:31.282Z,4.36
2017-03-12T02:03:41.851Z,4.33
2017-03-12T02:04:52.835Z,4.4
2017-03-12T02:06:03.389Z,4.42
2017-03-12T02:07:14.614Z,4.4
2017-03-12T02:08:25.171Z,4.4
2017-03-12T02:09:36.133Z,4.44
2017-03-12T02:10:45.883Z,4.37
2017-03-12T02:11:56.869Z,4.33
2017-03-12T02:13:07.164Z,4.36
2017-03-12T02:14:17.306Z,4.3
2017-03-12T02:15:27.091Z,4.32
2017-03-12T02:16:37.253Z,4.29
2017-03-12T02:17:47.831Z,4.32
2017-03-12T02:18:58.549Z,4.37
2017-03-12T02:20:08.717Z,4.36
2017-03-12T02:21:18.864Z,4.29
2017-03-12T02:22:29.435Z,4.24
2017-03-12T02:23:40.405Z,4.27
2017-03-12T02:24:50.972Z,4.26
2017-03-12T02:26:01.547Z,4.22
2017-03-12T02:27:11.712Z,4.16
2017-03-12T02:28:21.872Z,4.23
2017-03-12T02:29:32.014Z,4.24
2017-03-12T02:30:42.713Z,4.24
2017-03-12T02:31:52.450Z,4.29
2017-03-12T02:33:02.207Z,4.24
2017-03-12T02:34:12.756Z,4.24
2017-03-12T02:35:22.901Z,4.23
2017-03-12T02:36:33.092Z,4.14
2017-03-12T02:37:42.453Z,4.24
2017-03-12T02:38:53.022Z,4.12
2017-03-12T02:40:03.586Z,4.27
2017-03-12T02:41:13.355Z,4.22
2017-03-12T02:42:24.092Z,4.22
2017-03-12T02:43:33.850Z,4.24
2017-03-12T02:44:43.996Z,4.2
2017-03-12T02:45:54.561Z,4.16
2017-03-12T02:47:05.144Z,4.12
2017-03-12T02:48:16.054Z,4.08
2017-03-12T02:49:27.037Z,4.15
2017-03-12T02:50:36.770Z,4.11
2017-03-12T02:51:46.925Z,4.14
2017-03-12T02:52:57.095Z,4.18
2017-03-12T02:54:07.341Z,4.16
2017-03-12T02:55:17.095Z,4.06
2017-03-12T02:56:27.237Z,4.09
2017-03-12T02:57:37.813Z,4.12
2017-03-12T02:58:47.979Z,4.08
2017-03-12T02:59:58.711Z,4.12
2017-03-12T03:01:09.272Z,4.14
2017-03-12T03:02:19.018Z,4.06
2017-03-12T03:03:29.171Z,4.06
2017-03-12T03:04:38.508Z,4.14
2017-03-12T03:05:47.990Z,4.11
2017-03-12T03:06:58.153Z,4.05
2017-03-12T03:08:07.909Z,3.93
2017-03-12T03:09:17.640Z,4.02
2017-03-12T03:10:27.392Z,3.97
2017-03-12T03:11:38.106Z,3.98
2017-03-12T03:12:49.072Z,3.88
2017-03-12T03:13:59.650Z,3.88
2017-03-12T03:15:10.218Z,3.94
2017-03-12T03:16:19.946Z,3.91
2017-03-12T03:17:29.829Z,3.88
2017-03-12T03:18:40.380Z,3.93
2017-03-12T03:19:50.934Z,3.91
2017-03-12T03:21:01.123Z,3.94
2017-03-12T03:22:11.263Z,3.83
2017-03-12T03:23:21.574Z,3.83
2017-03-12T03:24:31.314Z,3.78
2017-03-12T03:25:40.678Z,3.84
2017-03-12T03:26:50.431Z,3.8
2017-03-12T03:28:00.185Z,3.76
2017-03-12T03:29:09.259Z,3.86
2017-03-12T03:30:19.007Z,3.88
2017-03-12T03:31:29.145Z,3.91
2017-03-12T03:32:39.743Z,3.88
2017-03-12T03:33:50.307Z,3.8
2017-03-12T03:35:00.933Z,3.76
2017-03-12T03:36:10.702Z,3.76
2017-03-12T03:37:21.660Z,3.72
2017-03-12T03:38:31.812Z,3.79
2017-03-12T03:39:41.566Z,3.72
2017-03-12T03:40:52.374Z,3.69
2017-03-12T03:42:02.525Z,3.7
2017-03-12T03:43:12.664Z,3.73
2017-03-12T03:44:22.838Z,3.68
2017-03-12T03:45:33.804Z,3.72
2017-03-12T03:46:44.359Z,3.7
2017-03-12T03:47:54.927Z,3.72
2017-03-12T03:49:04.661Z,3.68
2017-03-12T03:50:15.215Z,3.72
2017-03-12T03:51:24.976Z,3.73
2017-03-12T03:52:36.080Z,3.7
2017-03-12T03:53:45.825Z,3.7
2017-03-12T03:54:55.971Z,3.72
2017-03-12T03:56:05.311Z,3.66
2017-03-12T03:57:15.455Z,3.7
2017-03-12T03:58:26.186Z,3.66
2017-03-12T03:59:36.344Z,3.79
2017-03-12T04:00:46.085Z,3.72
2017-03-12T04:01:55.840Z,3.69
2017-03-12T04:03:06.399Z,3.68
2017-03-12T04:04:17.048Z,3.69
2017-03-12T04:05:27.602Z,3.72
2017-03-12T04:06:37.750Z,3.69
2017-03-12T04:07:48.741Z,3.65
2017-03-12T04:08:59.701Z,3.65
2017-03-12T04:10:10.433Z,3.68
2017-03-12T04:11:20.589Z,3.66
2017-03-12T04:12:29.909Z,3.51
2017-03-12T04:13:40.056Z,3.54
2017-03-12T04:14:51.014Z,3.52
2017-03-12T04:16:01.727Z,3.65
2017-03-12T04:17:11.883Z,3.68
2017-03-12T04:18:21.632Z,3.58
2017-03-12T04:19:31.782Z,3.54
2017-03-12T04:20:42.354Z,3.69
2017-03-12T04:21:52.750Z,3.65
2017-03-12T04:23:02.917Z,3.7
2017-03-12T04:24:13.070Z,3.75
2017-03-12T04:25:23.249Z,3.7
2017-03-12T04:26:33.798Z,3.55
2017-03-12T04:27:44.676Z,3.68
2017-03-12T04:28:54.827Z,3.65
2017-03-12T04:30:05.791Z,3.69
2017-03-12T04:31:16.363Z,3.65
2017-03-12T04:32:26.526Z,3.68
2017-03-12T04:33:36.670Z,3.62
2017-03-12T04:34:47.644Z,3.69
2017-03-12T04:35:58.603Z,3.69
2017-03-12T04:37:09.154Z,3.66
2017-03-12T04:38:19.707Z,3.69
2017-03-12T04:39:29.520Z,3.69
2017-03-12T04:40:39.674Z,3.66
2017-03-12T04:41:50.234Z,3.61
2017-03-12T04:42:59.982Z,3.7
2017-03-12T04:44:10.117Z,3.76
2017-03-12T04:45:20.670Z,3.68
2017-03-12T04:46:30.818Z,3.57
2017-03-12T04:47:41.364Z,3.68
2017-03-12T04:48:51.934Z,3.68
2017-03-12T04:50:02.502Z,3.68
2017-03-12T04:51:12.897Z,3.7
2017-03-12T04:52:23.059Z,3.68
2017-03-12T04:53:33.628Z,3.6
2017-03-12T04:54:44.586Z,3.7
2017-03-12T04:55:54.737Z,3.75
2017-03-12T04:57:05.440Z,3.72
2017-03-12T04:58:15.995Z,3.73
2017-03-12T04:59:26.579Z,3.7
2017-03-12T05:00:36.712Z,3.62
2017-03-12T05:01:46.875Z,3.72
2017-03-12T05:02:57.685Z,3.68
2017-03-12T05:04:07.842Z,3.7
2017-03-12T05:05:17.586Z,3.69
2017-03-12T05:06:27.741Z,3.62
2017-03-12T05:07:38.703Z,3.69
2017-03-12T05:08:49.118Z,3.66
2017-03-12T05:09:59.670Z,3.7
2017-03-12T05:11:09.845Z,3.69
2017-03-12T05:12:20.458Z,3.62
2017-03-12T05:13:31.037Z,3.7
2017-03-12T05:14:41.746Z,3.61
2017-03-12T05:15:52.315Z,3.68
2017-03-12T05:17:02.054Z,3.58
2017-03-12T05:18:12.631Z,3.72
2017-03-12T05:19:23.184Z,3.65
2017-03-12T05:20:33.639Z,3.69
2017-03-12T05:21:43.804Z,3.7
2017-03-12T05:22:53.957Z,3.51
2017-03-12T05:24:03.690Z,3.7
2017-03-12T05:25:13.853Z,3.66
2017-03-12T05:26:23.776Z,3.58
2017-03-12T05:27:34.349Z,3.55
2017-03-12T05:28:44.908Z,3.52
2017-03-12T05:29:55.908Z,3.55
2017-03-12T05:31:06.483Z,3.54
2017-03-12T05:32:16.465Z,3.48
2017-03-12T05:33:27.017Z,3.48
2017-03-12T05:34:37.644Z,3.42
2017-03-12T05:35:48.199Z,3.42
2017-03-12T05:36:59.174Z,3.39
2017-03-12T05:38:09.402Z,3.42
2017-03-12T05:39:19.555Z,3.36
2017-03-12T05:40:29.722Z,3.4
2017-03-12T05:41:39.859Z,3.33
2017-03-12T05:42:50.015Z,3.33
2017-03-12T05:44:00.310Z,3.36
2017-03-12T05:45:10.057Z,3.43
2017-03-12T05:46:19.799Z,3.43
2017-03-12T05:47:29.957Z,3.36
2017-03-12T05:48:40.552Z,3.35
2017-03-12T05:49:51.362Z,3.35
2017-03-12T05:51:01.537Z,3.33
2017-03-12T05:52:11.272Z,3.33
2017-03-12T05:53:21.423Z,3.26
2017-03-12T05:54:31.202Z,3.31
2017-03-12T05:55:41.503Z,3.32
2017-03-12T05:56:51.663Z,3.23
2017-03-12T05:58:02.233Z,3.29
2017-03-12T05:59:12.816Z,3.23
2017-03-12T06:00:23.390Z,3.33
2017-03-12T06:01:32.873Z,3.33
2017-03-12T06:02:43.447Z,3.24
2017-03-12T06:03:54.019Z,3.23
2017-03-12T06:05:04.606Z,3.32
2017-03-12T06:06:14.406Z,3.28
2017-03-12T06:07:24.605Z,3.23
2017-03-12T06:08:35.173Z,3.31
2017-03-12T06:09:44.983Z,3.29
2017-03-12T06:10:54.324Z,3.28
2017-03-12T06:12:04.890Z,3.26
2017-03-12T06:13:14.213Z,3.31
2017-03-12T06:14:24.809Z,3.29
2017-03-12T06:15:34.675Z,3.23
2017-03-12T06:16:45.128Z,3.23
2017-03-12T06:17:55.977Z,3.33
2017-03-12T06:19:06.448Z,3.31
2017-03-12T06:20:15.864Z,3.26
2017-03-12T06:21:26.417Z,3.28
2017-03-12T06:22:36.181Z,3.33
2017-03-12T06:23:46.752Z,3.42
2017-03-12T06:24:56.511Z,3.32
2017-03-12T06:26:06.665Z,3.36
2017-03-12T06:27:16.806Z,3.4
2017-03-12T06:28:26.984Z,3.35
2017-03-12T06:29:37.120Z,3.42
2017-03-12T06:30:48.103Z,3.35
2017-03-12T06:31:58.662Z,3.36
2017-03-12T06:33:07.615Z,3.5
2017-03-12T06:34:18.573Z,3.52
2017-03-12T06:35:28.720Z,3.45
2017-03-12T06:36:39.267Z,3.51
2017-03-12T06:37:49.424Z,3.54
2017-03-12T06:38:59.975Z,3.55
2017-03-12T06:40:10.131Z,3.57
2017-03-12T06:41:20.681Z,3.55
2017-03-12T06:42:30.424Z,3.54
2017-03-12T06:43:40.967Z,3.69
2017-03-12T06:44:51.130Z,3.66
2017-03-12T06:46:02.107Z,3.69
2017-03-12T06:47:11.843Z,3.68
2017-03-12T06:48:22.394Z,3.69
2017-03-12T06:49:32.564Z,3.68
2017-03-12T06:50:42.718Z,3.73
2017-03-12T06:51:52.872Z,3.72
2017-03-12T06:53:03.042Z,3.69
2017-03-12T06:54:13.080Z,3.69
2017-03-12T06:55:22.847Z,3.76
2017-03-12T06:56:33.000Z,3.78
2017-03-12T06:57:43.977Z,3.84
2017-03-12T06:58:54.543Z,3.78
2017-03-12T07:00:04.699Z,3.79
2017-03-12T07:01:15.273Z,3.88
2017-03-12T07:02:26.229Z,3.8
2017-03-12T07:03:36.829Z,3.83
2017-03-12T07:04:47.425Z,3.94
2017-03-12T07:05:57.983Z,3.79
2017-03-12T07:07:08.532Z,3.88
2017-03-12T07:08:18.689Z,3.79
2017-03-12T07:09:29.652Z,3.84
2017-03-12T07:10:40.234Z,3.79
2017-03-12T07:11:50.782Z,3.8
2017-03-12T07:13:01.356Z,3.88
2017-03-12T07:14:11.937Z,3.93
2017-03-12T07:15:22.145Z,3.88
2017-03-12T07:16:32.279Z,3.97
2017-03-12T07:17:42.429Z,3.98
2017-03-12T07:18:52.163Z,4.02
2017-03-12T07:20:02.298Z,3.97
2017-03-12T07:21:13.106Z,4
2017-03-12T07:22:22.848Z,4.02
2017-03-12T07:23:33.010Z,3.98
2017-03-12T07:24:43.589Z,3.94
2017-03-12T07:25:53.742Z,4.02
2017-03-12T07:27:04.965Z,3.91
2017-03-12T07:28:14.710Z,4.09
2017-03-12T07:29:24.858Z,4.11
2017-03-12T07:30:35.017Z,4.04
2017-03-12T07:31:45.179Z,4.16
2017-03-12T07:32:55.467Z,4.12
2017-03-12T07:34:06.027Z,4.22
2017-03-12T07:35:16.646Z,4.14
2017-03-12T07:36:26.806Z,4.15
2017-03-12T07:37:36.952Z,4.15
2017-03-12T07:38:47.663Z,4.22
2017-03-12T07:39:57.818Z,4.3
2017-03-12T07:41:07.567Z,4.24
2017-03-12T07:42:17.718Z,4.32
2017-03-12T07:43:28.288Z,4.29
2017-03-12T07:44:38.581Z,4.41
2017-03-12T07:45:48.737Z,4.36
2017-03-12T07:46:59.317Z,4.47
2017-03-12T07:48:09.682Z,4.42
2017-03-12T07:49:20.255Z,4.45
2017-03-12T07:50:30.143Z,4.45
2017-03-12T07:51:40.725Z,4.55
2017-03-12T07:52:51.275Z,4.52
2017-03-12T07:54:01.870Z,4.58
2017-03-12T07:55:12.438Z,4.63
2017-03-12T07:56:22.316Z,4.67
2017-03-12T07:57:32.054Z,4.7
2017-03-12T07:58:42.637Z,4.72
2017-03-12T07:59:52.782Z,4.7
2017-03-12T08:01:02.530Z,4.73
2017-03-12T08:02:13.237Z,4.73
2017-03-12T08:03:23.830Z,4.78
2017-03-12T08:04:34.401Z,4.78
2017-03-12T08:05:44.956Z,4.8
2017-03-12T08:06:55.120Z,4.97
2017-03-12T08:08:05.423Z,4.99
2017-03-12T08:09:15.596Z,5.03
2017-03-12T08:10:25.759Z,5.02
2017-03-12T08:11:36.401Z,4.99
2017-03-12T08:12:46.560Z,5.04
2017-03-12T08:13:56.502Z,4.99
2017-03-12T08:15:07.096Z,5.09
2017-03-12T08:16:17.240Z,5.04
2017-03-12T08:17:27.820Z,5.06
2017-03-12T08:18:37.566Z,5.13
2017-03-12T08:19:47.355Z,5.22
2017-03-12T08:20:57.508Z,5.3
2017-03-12T08:22:07.300Z,5.3
2017-03-12T08:23:17.042Z,5.31
2017-03-12T08:24:26.772Z,5.24
2017-03-12T08:25:36.307Z,5.35
2017-03-12T08:26:46.485Z,5.36
2017-03-12T08:27:56.642Z,5.39
2017-03-12T08:29:06.380Z,5.46
2017-03-12T08:30:16.956Z,5.43
2017-03-12T08:31:26.848Z,5.43
2017-03-12T08:32:36.597Z,5.46
2017-03-12T08:33:47.172Z,5.57
2017-03-12T08:34:57.340Z,5.61
2017-03-12T08:36:07.501Z,5.68
2017-03-12T08:37:18.210Z,5.67
2017-03-12T08:38:27.939Z,5.58
2017-03-12T08:39:38.490Z,5.6
2017-03-12T08:40:48.662Z,5.76
2017-03-12T08:41:58.418Z,5.85
2017-03-12T08:43:08.321Z,5.86
2017-03-12T08:44:18.067Z,5.75
2017-03-12T08:45:28.223Z,5.89
2017-03-12T08:46:37.557Z,5.93
2017-03-12T08:47:47.795Z,5.97
2017-03-12T08:48:58.842Z,5.99
2017-03-12T08:50:08.600Z,6.03
2017-03-12T08:51:18.764Z,6.12
2017-03-12T08:52:28.527Z,6.09
2017-03-12T08:53:38.682Z,6.22
2017-03-12T08:54:49.008Z,6.17
2017-03-12T08:55:58.789Z,6.19
2017-03-12T08:57:08.135Z,6.25
2017-03-12T08:58:18.301Z,6.22
2017-03-12T08:59:28.862Z,6.27
2017-03-12T09:00:38.595Z,6.28
2017-03-12T09:01:48.343Z,6.31
2017-03-12T09:02:58.075Z,6.3
2017-03-12T09:04:08.217Z,6.31
2017-03-12T09:05:19.210Z,6.28
2017-03-12T09:06:29.300Z,6.3
2017-03-12T09:07:39.041Z,6.31
2017-03-12T09:08:49.602Z,6.34
2017-03-12T09:09:59.745Z,6.34
2017-03-12T09:11:09.897Z,6.36
2017-03-12T09:12:19.374Z,6.44
2017-03-12T09:13:29.142Z,6.48
2017-03-12T09:14:39.703Z,6.44
2017-03-12T09:15:49.852Z,6.62
2017-03-12T09:16:59.179Z,6.64
2017-03-12T09:18:09.078Z,6.67
2017-03-12T09:19:18.816Z,6.64
2017-03-12T09:20:29.044Z,6.7
2017-03-12T09:21:38.374Z,6.79
2017-03-12T09:22:48.560Z,6.79
2017-03-12T09:23:58.878Z,6.85
2017-03-12T09:25:09.443Z,6.88
2017-03-12T09:26:19.604Z,6.92
2017-03-12T09:27:29.349Z,6.88
2017-03-12T09:28:39.103Z,6.88
2017-03-12T09:29:48.990Z,6.97
2017-03-12T09:30:59.558Z,6.91
2017-03-12T09:32:09.721Z,7.02
2017-03-12T09:33:19.058Z,7.02
2017-03-12T09:34:28.395Z,7.09
2017-03-12T09:35:37.841Z,7.13
2017-03-12T09:36:48.000Z,7.21
2017-03-12T09:37:58.587Z,7.24
2017-03-12T09:39:08.327Z,7.17
2017-03-12T09:40:17.262Z,7.15
2017-03-12T09:41:26.903Z,7.31
2017-03-12T09:42:37.066Z,7.43
2017-03-12T09:43:46.798Z,7.55
2017-03-12T09:44:56.544Z,7.58
2017-03-12T09:46:06.273Z,7.57
2017-03-12T09:47:16.569Z,7.61
2017-03-12T09:48:26.736Z,7.67
2017-03-12T09:49:36.482Z,7.86
2017-03-12T09:50:47.055Z,7.75
2017-03-12T09:51:57.614Z,7.72
2017-03-12T09:53:08.316Z,7.87
2017-03-12T09:54:18.879Z,7.85
2017-03-12T09:55:29.029Z,8.01
2017-03-12T09:56:38.379Z,7.97
2017-03-12T09:57:48.948Z,7.97
2017-03-12T09:58:59.159Z,8.04
2017-03-12T10:00:09.335Z,8.08
2017-03-12T10:01:19.473Z,8.22
2017-03-12T10:02:28.818Z,8.33
2017-03-12T10:03:38.562Z,8.41
2017-03-12T10:04:48.458Z,8.34
2017-03-12T10:05:58.610Z,8.4
2017-03-12T10:07:08.364Z,8.26
2017-03-12T10:08:18.143Z,8.3
2017-03-12T10:09:28.699Z,8.37
2017-03-12T10:10:38.598Z,8.41
2017-03-12T10:11:48.366Z,8.43
2017-03-12T10:12:57.693Z,8.44
2017-03-12T10:14:07.847Z,8.58
2017-03-12T10:15:18.812Z,8.7
2017-03-12T10:16:28.327Z,8.55
2017-03-12T10:17:38.488Z,8.55
2017-03-12T10:18:48.651Z,8.61
2017-03-12T10:19:59.214Z,8.59
2017-03-12T10:21:08.942Z,8.5
2017-03-12T10:22:18.597Z,8.56
2017-03-12T10:23:28.747Z,8.58
2017-03-12T10:24:38.901Z,8.53
2017-03-12T10:25:48.227Z,8.62
2017-03-12T10:26:58.787Z,8.74
2017-03-12T10:28:08.270Z,8.87
2017-03-12T10:29:18.415Z,8.89
2017-03-12T10:30:28.577Z,8.91
2017-03-12T10:31:37.505Z,8.96
2017-03-12T10:32:47.244Z,8.95
2017-03-12T10:33:56.723Z,8.92
2017-03-12T10:35:06.053Z,8.91
2017-03-12T10:36:16.198Z,8.96
2017-03-12T10:37:25.943Z,8.89
2017-03-12T10:38:35.698Z,8.95
2017-03-12T10:39:45.831Z,8.99
2017-03-12T10:40:55.574Z,9.05
2017-03-12T10:42:04.931Z,9.13
2017-03-12T10:43:13.869Z,9.21
2017-03-12T10:44:22.801Z,9.31
2017-03-12T10:45:32.709Z,9.14
2017-03-12T10:46:43.288Z,9.23
2017-03-12T10:47:52.619Z,9.26
2017-03-12T10:49:02.384Z,9.21
2017-03-12T10:50:12.541Z,9.35
2017-03-12T10:51:22.347Z,9.32
2017-03-12T10:52:31.674Z,9.24
2017-03-12T10:53:42.234Z,9.21
2017-03-12T10:54:52.794Z,9.33
2017-03-12T10:56:02.532Z,9.32
2017-03-12T10:57:12.940Z,9.38
2017-03-12T10:58:22.278Z,9.38
2017-03-12T10:59:32.436Z,9.39
2017-03-12T11:00:42.193Z,9.51
2017-03-12T11:01:52.368Z,9.46
2017-03-12T11:03:02.625Z,9.36
2017-03-12T11:04:11.980Z,9.43
2017-03-12T11:05:20.948Z,9.53
2017-03-12T11:06:30.691Z,9.65
2017-03-12T11:07:40.843Z,9.65
2017-03-12T11:08:49.759Z,9.76
2017-03-12T11:10:00.328Z,9.79
2017-03-12T11:11:10.094Z,9.75
2017-03-12T11:12:20.252Z,9.76
2017-03-12T11:13:30.014Z,9.78
2017-03-12T11:14:40.737Z,9.64
2017-03-12T11:15:50.497Z,9.81
2017-03-12T11:16:59.868Z,9.64
2017-03-12T11:18:10.064Z,9.68
2017-03-12T11:19:20.225Z,9.65
2017-03-12T11:20:30.222Z,9.66
2017-03-12T11:21:40.371Z,9.66
2017-03-12T11:22:50.538Z,9.75
2017-03-12T11:24:00.694Z,9.87
2017-03-12T11:25:10.456Z,9.86
2017-03-12T11:26:20.900Z,9.97
2017-03-12T11:27:31.046Z,9.91
2017-03-12T11:28:41.209Z,10.04
2017-03-12T11:29:51.403Z,10.12
2017-03-12T11:31:01.158Z,10.05
2017-03-12T11:32:11.111Z,9.99
2017-03-12T11:33:20.880Z,10.2
2017-03-12T11:34:30.634Z,10.29
2017-03-12T11:35:40.813Z,10.22
2017-03-12T11:36:50.976Z,10.32
2017-03-12T11:38:00.858Z,10.3
2017-03-12T11:39:11.423Z,10.23
2017-03-12T11:40:21.601Z,10.34
2017-03-12T11:41:31.775Z,10.23
2017-03-12T11:42:42.021Z,10.34
2017-03-12T11:43:51.982Z,10.42
2017-03-12T11:45:01.756Z,10.38
2017-03-12T11:46:11.921Z,10.27
2017-03-12T11:47:22.075Z,10.44
2017-03-12T11:48:30.999Z,10.44
2017-03-12T11:49:40.601Z,10.17
2017-03-12T11:50:49.543Z,10.3
2017-03-12T11:51:58.484Z,10.4
2017-03-12T11:53:08.245Z,10.41
2017-03-12T11:54:18.003Z,10.41
2017-03-12T11:55:28.317Z,10.42
2017-03-12T11:56:38.487Z,10.25
2017-03-12T11:57:48.647Z,10.27
2017-03-12T11:58:59.283Z,10.33
2017-03-12T12:00:09.451Z,10.42
2017-03-12T12:01:19.755Z,10.52
2017-03-12T12:02:29.505Z,10.41
2017-03-12T12:03:40.077Z,10.45
2017-03-12T12:04:49.831Z,10.53
2017-03-12T12:05:59.604Z,10.61
2017-03-12T12:07:10.615Z,10.52
2017-03-12T12:08:21.191Z,10.48
2017-03-12T12:09:31.349Z,10.67
2017-03-12T12:10:41.937Z,10.71
2017-03-12T12:11:52.519Z,10.66
2017-03-12T12:13:02.421Z,10.73
2017-03-12T12:14:12.578Z,10.81
2017-03-12T12:15:22.335Z,10.89
2017-03-12T12:16:32.095Z,10.91
2017-03-12T12:17:41.438Z,11.04
2017-03-12T12:18:52.011Z,11.09
2017-03-12T12:20:02.190Z,11.09
2017-03-12T12:21:12.771Z,11.21
2017-03-12T12:22:23.349Z,11.07
2017-03-12T12:23:32.743Z,11.22
2017-03-12T12:24:43.306Z,11.22
2017-03-12T12:25:53.490Z,11.32
2017-03-12T12:27:04.066Z,11.42
2017-03-12T12:28:13.807Z,11.33
2017-03-12T12:29:23.977Z,11.35
2017-03-12T12:30:34.187Z,11.4
2017-03-12T12:31:44.354Z,11.27
2017-03-12T12:32:54.949Z,11.24
2017-03-12T12:34:04.709Z,11.19
2017-03-12T12:35:14.865Z,11.22
2017-03-12T12:36:23.940Z,11.42
2017-03-12T12:37:34.524Z,11.42
2017-03-12T12:38:45.118Z,11.32
2017-03-12T12:39:55.289Z,11.37
2017-03-12T12:41:05.875Z,11.25
2017-03-12T12:42:16.026Z,11.21
2017-03-12T12:43:25.793Z,11.35
2017-03-12T12:44:35.532Z,11.29
2017-03-12T12:45:44.882Z,11.37
2017-03-12T12:46:55.862Z,11.57
2017-03-12T12:48:06.623Z,11.52
2017-03-12T12:49:16.768Z,11.58
2017-03-12T12:50:26.954Z,11.72
2017-03-12T12:51:37.101Z,11.72
2017-03-12T12:52:47.661Z,11.88
2017-03-12T12:53:58.824Z,11.8
2017-03-12T12:55:08.994Z,11.75
2017-03-12T12:56:19.570Z,11.8
2017-03-12T12:57:30.194Z,11.88
2017-03-12T12:58:40.294Z,11.78
2017-03-12T12:59:50.818Z,11.85
2017-03-12T13:01:01.330Z,11.8
2017-03-12T13:02:11.909Z,11.65
2017-03-12T13:03:22.511Z,11.67
2017-03-12T13:04:33.102Z,11.61
2017-03-12T13:05:43.437Z,11.76
2017-03-12T13:06:54.014Z,11.61
2017-03-12T13:08:04.578Z,11.72
2017-03-12T13:09:15.163Z,11.75
2017-03-12T13:10:25.737Z,12.1
2017-03-12T13:11:36.485Z,11.72
2017-03-12T13:12:47.062Z,11.8
2017-03-12T13:13:57.670Z,11.83
2017-03-12T13:15:07.437Z,11.75
2017-03-12T13:16:17.202Z,11.69
2017-03-12T13:17:27.023Z,11.73
2017-03-12T13:18:37.588Z,11.75
2017-03-12T13:19:47.774Z,11.73
2017-03-12T13:20:57.559Z,11.78
2017-03-12T13:22:07.732Z,11.96
2017-03-12T13:23:18.076Z,11.79
2017-03-12T13:24:28.647Z,11.8
2017-03-12T13:25:39.631Z,12.09
2017-03-12T13:26:50.223Z,12.13
2017-03-12T13:28:00.374Z,12.12
2017-03-12T13:29:09.870Z,12.24
2017-03-12T13:30:20.454Z,12.32
2017-03-12T13:31:31.028Z,12.38
2017-03-12T13:32:41.601Z,12.41
2017-03-12T13:33:51.768Z,12.32
2017-03-12T13:35:01.258Z,12.14
2017-03-12T13:36:11.415Z,12.1
2017-03-12T13:37:20.757Z,11.8
2017-03-12T13:38:30.542Z,11.88
2017-03-12T13:39:41.129Z,12.1
2017-03-12T13:40:51.768Z,11.75
2017-03-12T13:42:01.514Z,11.9
2017-03-12T13:43:12.096Z,11.91
2017-03-12T13:44:22.256Z,11.91
2017-03-12T13:45:32.051Z,11.9
2017-03-12T13:46:43.145Z,11.79
2017-03-12T13:47:53.726Z,11.88
2017-03-12T13:49:02.668Z,12.02
2017-03-12T13:50:12.485Z,12.17
2017-03-12T13:51:21.843Z,12.19
2017-03-12T13:52:31.643Z,12.28
2017-03-12T13:53:41.415Z,12.28
2017-03-12T13:54:52.011Z,12.24
2017-03-12T13:56:02.582Z,12.24
2017-03-12T13:57:12.741Z,12.29
2017-03-12T13:58:22.555Z,12.28
2017-03-12T13:59:33.138Z,12.05
2017-03-12T14:00:43.701Z,12.09
2017-03-12T14:01:54.975Z,12.1
2017-03-12T14:03:06.171Z,12.46
2017-03-12T14:04:16.554Z,12.67
2017-03-12T14:05:27.138Z,12.6
2017-03-12T14:06:37.720Z,12.54
2017-03-12T14:07:48.706Z,12.52
2017-03-12T14:08:58.465Z,12.32
2017-03-12T14:10:09.132Z,12.31
2017-03-12T14:11:19.311Z,12.23
2017-03-12T14:12:29.899Z,12.46
2017-03-12T14:13:39.309Z,12.6
2017-03-12T14:14:49.886Z,12.68
2017-03-12T14:16:00.067Z,12.71
2017-03-12T14:17:09.825Z,12.57
2017-03-12T14:18:20.420Z,12.56
2017-03-12T14:19:31.017Z,12.75
2017-03-12T14:20:41.198Z,12.71
2017-03-12T14:21:51.102Z,12.68
2017-03-12T14:23:00.864Z,12.78
2017-03-12T14:24:10.200Z,12.72
2017-03-12T14:25:19.949Z,12.7
2017-03-12T14:26:29.714Z,12.78
2017-03-12T14:27:40.298Z,12.67
2017-03-12T14:28:50.887Z,12.67
2017-03-12T14:30:01.115Z,12.62
2017-03-12T14:31:11.289Z,12.5
2017-03-12T14:32:21.057Z,12.52
2017-03-12T14:33:30.916Z,12.77
2017-03-12T14:34:40.668Z,12.87
2017-03-12T14:35:51.252Z,12.77
2017-03-12T14:37:01.438Z,12.77
2017-03-12T14:38:11.631Z,12.95
2017-03-12T14:39:21.648Z,13.01
2017-03-12T14:40:31.443Z,13.05
2017-03-12T14:41:40.816Z,13.12
2017-03-12T14:42:51.815Z,13.3
2017-03-12T14:44:02.025Z,13.29
2017-03-12T14:45:12.360Z,13.29
2017-03-12T14:46:22.936Z,13.03
2017-03-12T14:47:32.281Z,12.9
2017-03-12T14:48:42.060Z,12.92
2017-03-12T14:49:52.630Z,12.83
2017-03-12T14:51:03.045Z,12.75
2017-03-12T14:52:12.826Z,12.46
2017-03-12T14:53:23.433Z,12.68
2017-03-12T14:54:33.591Z,12.62
2017-03-12T14:55:43.754Z,12.57
2017-03-12T14:56:53.971Z,12.42
2017-03-12T14:58:04.966Z,12.38
2017-03-12T14:59:14.739Z,12.19
2017-03-12T15:00:24.916Z,12.29
2017-03-12T15:01:35.500Z,12.57
2017-03-12T15:02:46.255Z,12.5
2017-03-12T15:03:56.011Z,12.57
2017-03-12T15:05:04.961Z,12.53
2017-03-12T15:06:14.742Z,12.17
2017-03-12T15:07:25.319Z,12.13
2017-03-12T15:08:35.184Z,12.21
2017-03-12T15:09:44.940Z,12.31
2017-03-12T15:10:55.091Z,12.14
2017-03-12T15:12:05.264Z,12.02
2017-03-12T15:13:15.032Z,12.12
2017-03-12T15:14:26.198Z,11.95
2017-03-12T15:15:35.946Z,11.94
2017-03-12T15:16:46.112Z,12.1
2017-03-12T15:17:55.880Z,11.94
2017-03-12T15:19:06.448Z,11.88
2017-03-12T15:20:16.761Z,11.9
2017-03-12T15:21:26.917Z,12.05
2017-03-12T15:22:37.510Z,11.83
2017-03-12T15:23:48.082Z,12.01
2017-03-12T15:24:58.274Z,12.07
2017-03-12T15:26:07.715Z,12.02
2017-03-12T15:27:18.297Z,11.96
2017-03-12T15:28:28.459Z,11.82
2017-03-12T15:29:37.820Z,11.95